DLH136 EDLW-EDDH
Flight info
| Callsign | DLH136 |
|---|---|
| Flight time | 0h 33m |
| Altitude | 25998 |
| Route | OSN8Q/06 OSN DCT EXPUH M170 BASUM/N0456F240 Y850 PIXUR/N0450F230 Y850 MUBZI M105 RIBSO RIBSO7A |
| Aircraft | A359/H-SDE2E3GHIJ3J4J5LM1ORWXY/LB1D1 |
Departure
| Time | 2026-05-06 15:25 |
|---|---|
| Airport | Dortmund Airport (EDLW) |
Arrival
| Time | 2026-05-06 15:58 |
|---|---|
| Airport | Hamburg Helmut Schmidt Airport (EDDH) |
| Time | Latitude | Longitude | Altitude | Speed | Heading |
|---|---|---|---|---|---|
| 2026-05-06 15:01 | 51.51427 | 7.60986 | 443 ft | 0 kts | 143° |
| 2026-05-06 15:17 | 51.51430 | 7.60982 | 443 ft | 3 kts | 143° |
| 2026-05-06 15:17 | 51.51448 | 7.60959 | 426 ft | 4 kts | 135° |
| 2026-05-06 15:18 | 51.51466 | 7.60926 | 426 ft | 4 kts | 125° |
| 2026-05-06 15:18 | 51.51474 | 7.60906 | 425 ft | 0 kts | 126° |
| 2026-05-06 15:20 | 51.51474 | 7.60908 | 425 ft | 0 kts | 123° |
| 2026-05-06 15:20 | 51.51470 | 7.60923 | 425 ft | 2 kts | 107° |
| 2026-05-06 15:20 | 51.51473 | 7.60934 | 425 ft | 0 kts | 71° |
| 2026-05-06 15:21 | 51.51474 | 7.60936 | 425 ft | 2 kts | 71° |
| 2026-05-06 15:21 | 51.51489 | 7.60990 | 428 ft | 6 kts | 63° |
| 2026-05-06 15:21 | 51.51521 | 7.61043 | 434 ft | 8 kts | 26° |
| 2026-05-06 15:22 | 51.51566 | 7.61001 | 421 ft | 9 kts | 277° |
| 2026-05-06 15:22 | 51.51541 | 7.60907 | 423 ft | 10 kts | 244° |
| 2026-05-06 15:22 | 51.51504 | 7.60803 | 421 ft | 12 kts | 239° |
| 2026-05-06 15:22 | 51.51461 | 7.60682 | 426 ft | 13 kts | 240° |
| 2026-05-06 15:23 | 51.51420 | 7.60563 | 420 ft | 12 kts | 240° |
| 2026-05-06 15:23 | 51.51378 | 7.60446 | 420 ft | 12 kts | 240° |
| 2026-05-06 15:23 | 51.51368 | 7.60326 | 422 ft | 11 kts | 290° |
| 2026-05-06 15:23 | 51.51425 | 7.60246 | 423 ft | 12 kts | 327° |
| 2026-05-06 15:24 | 51.51498 | 7.60276 | 417 ft | 13 kts | 62° |
| 2026-05-06 15:24 | 51.51589 | 7.60536 | 417 ft | 58 kts | 60° |
| 2026-05-06 15:24 | 51.51913 | 7.61446 | 411 ft | 130 kts | 60° |
| 2026-05-06 15:24 | 51.52461 | 7.62975 | 631 ft | 174 kts | 57° |
| 2026-05-06 15:25 | 51.53122 | 7.64781 | 1056 ft | 202 kts | 59° |
| 2026-05-06 15:25 | 51.53864 | 7.66981 | 1295 ft | 247 kts | 59° |
| 2026-05-06 15:25 | 51.54780 | 7.69634 | 1563 ft | 291 kts | 59° |
| 2026-05-06 15:25 | 51.55808 | 7.72556 | 2438 ft | 306 kts | 59° |
| 2026-05-06 15:26 | 51.56857 | 7.75534 | 3665 ft | 309 kts | 59° |
| 2026-05-06 15:26 | 51.58110 | 7.78413 | 4463 ft | 321 kts | 41° |
| 2026-05-06 15:26 | 51.60043 | 7.80126 | 5518 ft | 317 kts | 12° |
| 2026-05-06 15:26 | 51.62196 | 7.80169 | 6726 ft | 307 kts | 346° |
| 2026-05-06 15:27 | 51.64219 | 7.79223 | 7908 ft | 300 kts | 340° |
| 2026-05-06 15:27 | 51.66202 | 7.78254 | 9088 ft | 294 kts | 341° |
| 2026-05-06 15:27 | 51.68150 | 7.77392 | 10205 ft | 287 kts | 342° |
| 2026-05-06 15:27 | 51.70063 | 7.76610 | 11236 ft | 279 kts | 343° |
| 2026-05-06 15:28 | 51.71949 | 7.75872 | 11972 ft | 285 kts | 345° |
| 2026-05-06 15:28 | 51.73933 | 7.75118 | 12323 ft | 302 kts | 345° |
| 2026-05-06 15:28 | 51.76045 | 7.74336 | 12635 ft | 319 kts | 345° |
| 2026-05-06 15:28 | 51.78268 | 7.73551 | 12986 ft | 336 kts | 348° |
| 2026-05-06 15:29 | 51.80660 | 7.73539 | 13316 ft | 356 kts | 10° |
| 2026-05-06 15:29 | 51.82987 | 7.75153 | 13674 ft | 375 kts | 34° |
| 2026-05-06 15:29 | 51.85002 | 7.77936 | 14013 ft | 390 kts | 43° |
| 2026-05-06 15:29 | 51.87019 | 7.81008 | 14461 ft | 401 kts | 42° |
| 2026-05-06 15:30 | 51.89104 | 7.84108 | 14865 ft | 414 kts | 41° |
| 2026-05-06 15:30 | 51.91258 | 7.87245 | 15461 ft | 419 kts | 41° |
| 2026-05-06 15:30 | 51.93438 | 7.90387 | 16273 ft | 420 kts | 41° |
| 2026-05-06 15:30 | 51.95610 | 7.93501 | 17021 ft | 423 kts | 41° |
| 2026-05-06 15:31 | 51.97827 | 7.96672 | 17728 ft | 426 kts | 41° |
| 2026-05-06 15:31 | 52.00043 | 7.99841 | 18361 ft | 429 kts | 41° |
| 2026-05-06 15:31 | 52.02298 | 8.03068 | 18950 ft | 432 kts | 40° |
| 2026-05-06 15:32 | 52.06820 | 8.09544 | 20150 ft | 438 kts | 40° |
| 2026-05-06 15:32 | 52.09099 | 8.12814 | 20619 ft | 441 kts | 40° |
| 2026-05-06 15:32 | 52.11414 | 8.16138 | 20895 ft | 443 kts | 40° |
| 2026-05-06 15:32 | 52.13702 | 8.19429 | 21165 ft | 446 kts | 40° |
| 2026-05-06 15:33 | 52.16051 | 8.22812 | 21479 ft | 448 kts | 40° |
| 2026-05-06 15:33 | 52.18408 | 8.26206 | 21792 ft | 450 kts | 39° |
| 2026-05-06 15:33 | 52.20866 | 8.29231 | 22081 ft | 450 kts | 32° |
| 2026-05-06 15:33 | 52.23586 | 8.31920 | 22397 ft | 451 kts | 28° |
| 2026-05-06 15:34 | 52.26312 | 8.34338 | 22771 ft | 452 kts | 26° |
| 2026-05-06 15:34 | 52.29106 | 8.36699 | 23090 ft | 454 kts | 25° |
| 2026-05-06 15:34 | 52.31933 | 8.39062 | 23387 ft | 456 kts | 26° |
| 2026-05-06 15:34 | 52.34757 | 8.41440 | 23646 ft | 458 kts | 26° |
| 2026-05-06 15:35 | 52.37586 | 8.43853 | 23907 ft | 460 kts | 26° |
| 2026-05-06 15:35 | 52.40431 | 8.46307 | 24182 ft | 462 kts | 26° |
| 2026-05-06 15:35 | 52.43287 | 8.48802 | 24298 ft | 468 kts | 27° |
| 2026-05-06 15:35 | 52.46129 | 8.51301 | 24525 ft | 470 kts | 27° |
| 2026-05-06 15:36 | 52.49023 | 8.53852 | 24762 ft | 472 kts | 28° |
| 2026-05-06 15:36 | 52.51906 | 8.56396 | 25082 ft | 473 kts | 28° |
| 2026-05-06 15:36 | 52.54813 | 8.58965 | 25335 ft | 475 kts | 28° |
| 2026-05-06 15:36 | 52.57715 | 8.61532 | 25673 ft | 475 kts | 28° |
| 2026-05-06 15:37 | 52.60627 | 8.64114 | 25823 ft | 479 kts | 28° |
| 2026-05-06 15:37 | 52.63554 | 8.66708 | 25861 ft | 482 kts | 28° |
| 2026-05-06 15:37 | 52.66498 | 8.69317 | 25863 ft | 483 kts | 28° |
| 2026-05-06 15:37 | 52.69471 | 8.71955 | 25861 ft | 483 kts | 28° |
| 2026-05-06 15:38 | 52.72418 | 8.74575 | 25831 ft | 482 kts | 28° |
| 2026-05-06 15:38 | 52.75485 | 8.76966 | 25628 ft | 477 kts | 20° |
| 2026-05-06 15:38 | 52.78592 | 8.78330 | 25378 ft | 474 kts | 8° |
| 2026-05-06 15:38 | 52.81861 | 8.78817 | 25160 ft | 468 kts | 3° |
| 2026-05-06 15:39 | 52.85116 | 8.78983 | 24835 ft | 460 kts | 0° |
| 2026-05-06 15:39 | 52.88273 | 8.78987 | 24357 ft | 457 kts | 359° |
| 2026-05-06 15:39 | 52.91437 | 8.78919 | 23861 ft | 454 kts | 359° |
| 2026-05-06 15:39 | 52.94588 | 8.78848 | 23355 ft | 451 kts | 0° |
| 2026-05-06 15:40 | 52.97731 | 8.79191 | 22820 ft | 447 kts | 5° |
| 2026-05-06 15:40 | 53.00824 | 8.79733 | 22322 ft | 443 kts | 6° |
| 2026-05-06 15:40 | 53.03867 | 8.80360 | 21856 ft | 438 kts | 7° |
| 2026-05-06 15:40 | 53.06834 | 8.81026 | 21394 ft | 433 kts | 8° |
| 2026-05-06 15:41 | 53.09801 | 8.81715 | 20891 ft | 430 kts | 8° |
| 2026-05-06 15:41 | 53.12784 | 8.82413 | 20024 ft | 436 kts | 8° |
| 2026-05-06 15:41 | 53.15790 | 8.83115 | 19300 ft | 438 kts | 7° |
| 2026-05-06 15:41 | 53.18814 | 8.83816 | 18748 ft | 436 kts | 7° |
| 2026-05-06 15:42 | 53.21807 | 8.84507 | 18283 ft | 432 kts | 7° |
| 2026-05-06 15:42 | 53.24789 | 8.85192 | 17635 ft | 431 kts | 7° |
| 2026-05-06 15:42 | 53.26752 | 8.85642 | 17304 ft | 428 kts | 8° |
| 2026-05-06 15:42 | 53.29672 | 8.86310 | 16808 ft | 422 kts | 8° |
| 2026-05-06 15:43 | 53.32575 | 8.86993 | 16215 ft | 420 kts | 10° |
| 2026-05-06 15:43 | 53.35375 | 8.88219 | 15779 ft | 413 kts | 19° |
| 2026-05-06 15:43 | 53.38079 | 8.89827 | 15262 ft | 409 kts | 21° |
| 2026-05-06 15:43 | 53.41552 | 8.92161 | 14643 ft | 403 kts | 24° |
| 2026-05-06 15:44 | 53.43283 | 8.93388 | 14283 ft | 400 kts | 25° |
| 2026-05-06 15:44 | 53.45825 | 8.95226 | 13780 ft | 397 kts | 25° |
| 2026-05-06 15:44 | 53.48347 | 8.97062 | 13250 ft | 393 kts | 25° |
| 2026-05-06 15:44 | 53.50844 | 8.98874 | 12693 ft | 388 kts | 25° |
| 2026-05-06 15:45 | 53.53232 | 9.00761 | 12168 ft | 383 kts | 31° |
| 2026-05-06 15:45 | 53.55468 | 9.03155 | 11662 ft | 378 kts | 35° |
| 2026-05-06 15:45 | 53.57600 | 9.05620 | 11166 ft | 374 kts | 35° |
| 2026-05-06 15:45 | 53.59658 | 9.08209 | 10581 ft | 371 kts | 43° |
| 2026-05-06 15:46 | 53.61237 | 9.11644 | 10101 ft | 365 kts | 62° |
| 2026-05-06 15:46 | 53.62124 | 9.15605 | 9696 ft | 359 kts | 72° |
| 2026-05-06 15:46 | 53.62791 | 9.19538 | 9422 ft | 347 kts | 73° |
| 2026-05-06 15:46 | 53.63426 | 9.23388 | 9162 ft | 336 kts | 74° |
| 2026-05-06 15:47 | 53.64037 | 9.27126 | 8937 ft | 326 kts | 73° |
| 2026-05-06 15:47 | 53.64590 | 9.30738 | 8877 ft | 310 kts | 74° |
| 2026-05-06 15:47 | 53.64934 | 9.34229 | 8858 ft | 294 kts | 89° |
| 2026-05-06 15:47 | 53.64499 | 9.37480 | 8866 ft | 280 kts | 114° |
| 2026-05-06 15:48 | 53.63350 | 9.39951 | 8881 ft | 265 kts | 137° |
| 2026-05-06 15:48 | 53.61915 | 9.41759 | 8969 ft | 249 kts | 143° |
| 2026-05-06 15:48 | 53.60494 | 9.43371 | 8989 ft | 246 kts | 143° |
| 2026-05-06 15:48 | 53.59062 | 9.44961 | 8896 ft | 246 kts | 144° |
| 2026-05-06 15:49 | 53.57609 | 9.46565 | 8410 ft | 251 kts | 143° |
| 2026-05-06 15:49 | 53.56169 | 9.48144 | 8149 ft | 245 kts | 144° |
| 2026-05-06 15:49 | 53.54743 | 9.49722 | 7768 ft | 244 kts | 143° |
| 2026-05-06 15:49 | 53.53273 | 9.51137 | 7355 ft | 246 kts | 159° |
| 2026-05-06 15:50 | 53.51595 | 9.51499 | 6979 ft | 249 kts | 179° |
| 2026-05-06 15:50 | 53.49869 | 9.51272 | 6643 ft | 249 kts | 183° |
| 2026-05-06 15:50 | 53.48157 | 9.51225 | 6231 ft | 245 kts | 165° |
| 2026-05-06 15:50 | 53.46653 | 9.52431 | 5821 ft | 237 kts | 135° |
| 2026-05-06 15:51 | 53.45773 | 9.54658 | 5425 ft | 229 kts | 104° |
| 2026-05-06 15:51 | 53.45610 | 9.57248 | 5056 ft | 224 kts | 86° |
| 2026-05-06 15:51 | 53.45701 | 9.59860 | 4724 ft | 223 kts | 84° |
| 2026-05-06 15:51 | 53.45828 | 9.62436 | 4393 ft | 221 kts | 82° |
| 2026-05-06 15:52 | 53.46326 | 9.64843 | 4019 ft | 219 kts | 59° |
| 2026-05-06 15:52 | 53.47231 | 9.66875 | 3699 ft | 216 kts | 50° |
| 2026-05-06 15:52 | 53.48194 | 9.68790 | 3404 ft | 213 kts | 50° |
| 2026-05-06 15:52 | 53.49122 | 9.70642 | 3242 ft | 204 kts | 50° |
| 2026-05-06 15:53 | 53.50025 | 9.72455 | 3057 ft | 194 kts | 51° |
| 2026-05-06 15:53 | 53.50832 | 9.74089 | 2975 ft | 173 kts | 51° |
| 2026-05-06 15:53 | 53.51545 | 9.75544 | 3005 ft | 152 kts | 51° |
| 2026-05-06 15:53 | 53.52203 | 9.76890 | 3005 ft | 147 kts | 52° |
| 2026-05-06 15:54 | 53.52851 | 9.78213 | 2997 ft | 147 kts | 51° |
| 2026-05-06 15:54 | 53.53511 | 9.79555 | 2801 ft | 150 kts | 51° |
| 2026-05-06 15:54 | 53.54174 | 9.80894 | 2537 ft | 147 kts | 50° |
| 2026-05-06 15:54 | 53.54822 | 9.82197 | 2342 ft | 142 kts | 51° |
| 2026-05-06 15:55 | 53.55442 | 9.83451 | 2152 ft | 139 kts | 51° |
| 2026-05-06 15:55 | 53.56062 | 9.84705 | 1953 ft | 139 kts | 50° |
| 2026-05-06 15:55 | 53.56683 | 9.85959 | 1777 ft | 140 kts | 50° |
| 2026-05-06 15:55 | 53.57305 | 9.87216 | 1561 ft | 139 kts | 49° |
| 2026-05-06 15:56 | 53.57919 | 9.88456 | 1376 ft | 140 kts | 50° |
| 2026-05-06 15:56 | 53.58546 | 9.89727 | 1170 ft | 142 kts | 49° |
| 2026-05-06 15:56 | 53.59187 | 9.91021 | 968 ft | 146 kts | 50° |
| 2026-05-06 15:56 | 53.59842 | 9.92351 | 755 ft | 148 kts | 49° |
| 2026-05-06 15:57 | 53.60502 | 9.93684 | 544 ft | 148 kts | 49° |
| 2026-05-06 15:57 | 53.61159 | 9.95014 | 356 ft | 149 kts | 49° |
| 2026-05-06 15:57 | 53.61826 | 9.96368 | 144 ft | 150 kts | 50° |
| 2026-05-06 15:57 | 53.62462 | 9.97668 | 44 ft | 136 kts | 49° |
| 2026-05-06 15:58 | 53.62936 | 9.98623 | 45 ft | 64 kts | 50° |
| 2026-05-06 15:58 | 53.63071 | 9.98935 | 46 ft | 14 kts | 68° |
| 2026-05-06 15:58 | 53.63090 | 9.99076 | 47 ft | 10 kts | 85° |
| 2026-05-06 15:58 | 53.63091 | 9.99105 | 47 ft | 5 kts | 88° |
| 2026-05-06 15:59 | 53.63091 | 9.99117 | 47 ft | 0 kts | 90° |
| 2026-05-06 15:59 | 53.63090 | 9.99156 | 47 ft | 7 kts | 92° |
| 2026-05-06 15:59 | 53.63087 | 9.99238 | 46 ft | 7 kts | 95° |
| 2026-05-06 15:59 | 53.63089 | 9.99315 | 47 ft | 6 kts | 82° |
| 2026-05-06 16:00 | 53.63102 | 9.99386 | 51 ft | 6 kts | 68° |
| 2026-05-06 16:00 | 53.63120 | 9.99444 | 45 ft | 5 kts | 60° |
| 2026-05-06 16:00 | 53.63144 | 9.99503 | 47 ft | 7 kts | 53° |
| 2026-05-06 16:00 | 53.63177 | 9.99576 | 44 ft | 9 kts | 51° |
| 2026-05-06 16:01 | 53.63210 | 9.99656 | 47 ft | 8 kts | 62° |
| 2026-05-06 16:01 | 53.63214 | 9.99732 | 49 ft | 6 kts | 106° |
| 2026-05-06 16:01 | 53.63187 | 9.99784 | 45 ft | 6 kts | 143° |
| 2026-05-06 16:01 | 53.63151 | 9.99822 | 48 ft | 6 kts | 150° |
| 2026-05-06 16:02 | 53.63111 | 9.99856 | 47 ft | 7 kts | 153° |
| 2026-05-06 16:02 | 53.63069 | 9.99894 | 44 ft | 7 kts | 152° |
| 2026-05-06 16:02 | 53.63025 | 9.99933 | 48 ft | 7 kts | 152° |
| 2026-05-06 16:02 | 53.62979 | 9.99974 | 46 ft | 8 kts | 152° |
| 2026-05-06 16:03 | 53.62952 | 10.00042 | 46 ft | 7 kts | 94° |
| 2026-05-06 16:03 | 53.62972 | 10.00107 | 45 ft | 6 kts | 45° |
| 2026-05-06 16:03 | 53.63009 | 10.00155 | 48 ft | 7 kts | 35° |
| 2026-05-06 16:03 | 53.63049 | 10.00201 | 45 ft | 7 kts | 32° |
| 2026-05-06 16:04 | 53.63094 | 10.00228 | 52 ft | 4 kts | 32° |
| 2026-05-06 16:04 | 53.63097 | 10.00253 | 45 ft | 2 kts | 78° |
| 2026-05-06 16:04 | 53.63099 | 10.00267 | 45 ft | 3 kts | 81° |
| 2026-05-06 16:04 | 53.63101 | 10.00304 | 48 ft | 3 kts | 84° |
| 2026-05-06 16:05 | 53.63104 | 10.00345 | 50 ft | 4 kts | 85° |
| 2026-05-06 16:05 | 53.63105 | 10.00376 | 50 ft | 0 kts | 85° |